Terminal Aerodrome Forecast
Issued by NWS Lake Charles, LA

Home | Current Version | Previous Version | Text Only | Print | Product List | Glossary On
Versions: 1 2 3 4 5 6 7 8 9 10 11 12 13 14 15 16
547
FTUS44 KLCH 232320
TAFARA
TAF
KARA 232320Z 2400/2424 30010KT P6SM BKN060
     FM240100 VRB03KT P6SM SKC
     FM241500 32010G16KT P6SM SCT040=

USA.gov is the U.S. government's official web portal to all federal, state and local government web resources and services.